Time;durP1;ratioP1;P1;durP2;ratioP2;P2;SDS_P1;SDS_P2;PMS_P1;PMS_P2;Temp;Humidity;BMP_temperature;BMP_pressure;BME280_temperature;BME280_humidity;BME280_pressure;Samples;Min_cycle;Max_cycle;Signal;HPM_P1;HPM_P2
2023/03/03 00:01:15;;;;;;;9.23;8.23;;;;;;;;;;5016726;28;20206;-64
2023/03/03 00:03:44;;;;;;;9.52;8.52;;;;;;;;;;5016145;28;20302;-64
2023/03/03 00:06:12;;;;;;;9.68;8.77;;;;;;;;;;5022839;28;20205;-64
2023/03/03 00:08:41;;;;;;;9.30;8.40;;;;;;;;;;5016905;28;20284;-64
2023/03/03 00:11:08;;;;;;;10.20;9.20;;;;;;;;;;5017030;28;20289;-64
2023/03/03 00:13:41;;;;;;;9.75;8.75;;;;;;;;;;5017186;28;20599;-64
2023/03/03 00:16:14;;;;;;;9.95;8.95;;;;;;;;;;5018209;28;20499;-64
2023/03/03 00:18:43;;;;;;;9.55;8.38;;;;;;;;;;5031364;28;20203;-64
2023/03/03 00:21:20;;;;;;;9.65;8.75;;;;;;;;;;5024768;28;20553;-64
2023/03/03 00:23:47;;;;;;;9.68;8.68;;;;;;;;;;5016698;28;20241;-64
2023/03/03 00:26:19;;;;;;;10.20;9.20;;;;;;;;;;5016624;28;20234;-64
2023/03/03 00:28:47;;;;;;;10.02;9.02;;;;;;;;;;5017085;28;20257;-64
2023/03/03 00:31:17;;;;;;;10.75;9.65;;;;;;;;;;5016436;28;20214;-64
2023/03/03 00:33:49;;;;;;;10.60;9.50;;;;;;;;;;5026070;28;20293;-63
2023/03/03 00:36:30;;;;;;;9.68;8.70;;;;;;;;;;5018618;28;20268;-65
2023/03/03 00:38:58;;;;;;;9.35;8.43;;;;;;;;;;5017103;28;20207;-64
2023/03/03 00:41:27;;;;;;;10.05;9.05;;;;;;;;;;5017081;28;20242;-64
2023/03/03 00:43:55;;;;;;;9.77;8.77;;;;;;;;;;5016622;28;20293;-64
2023/03/03 00:46:23;;;;;;;9.85;8.85;;;;;;;;;;5018758;28;20205;-64
2023/03/03 00:48:51;;;;;;;10.30;9.20;;;;;;;;;;5017144;28;20707;-64
2023/03/03 00:51:27;;;;;;;9.85;8.93;;;;;;;;;;5016757;28;20583;-63
2023/03/03 00:53:54;;;;;;;10.05;9.05;;;;;;;;;;5016489;28;20249;-63
2023/03/03 00:56:22;;;;;;;10.32;9.32;;;;;;;;;;5016840;28;20289;-63
2023/03/03 00:58:49;;;;;;;10.52;9.43;;;;;;;;;;5016677;28;20545;-64
2023/03/03 01:01:17;;;;;;;10.30;9.30;;;;;;;;;;5020903;28;20598;-64
2023/03/03 01:03:45;;;;;;;10.70;9.60;;;;;;;;;;5016900;28;20221;-64
2023/03/03 01:06:14;;;;;;;10.38;9.27;;;;;;;;;;5016621;28;20306;-64
2023/03/03 01:08:43;;;;;;;10.18;9.18;;;;;;;;;;5018279;28;20202;-64
2023/03/03 01:11:11;;;;;;;10.45;9.35;;;;;;;;;;5020075;28;20202;-64
2023/03/03 01:13:40;;;;;;;10.10;9.10;;;;;;;;;;5020700;28;20293;-64
2023/03/03 01:16:08;;;;;;;10.55;9.45;;;;;;;;;;5024974;28;20210;-63
2023/03/03 01:18:36;;;;;;;9.68;8.75;;;;;;;;;;5019685;28;20579;-63
2023/03/03 01:21:04;;;;;;;10.55;9.45;;;;;;;;;;5020196;28;20228;-64
2023/03/03 01:23:31;;;;;;;10.82;9.75;;;;;;;;;;5019240;28;20611;-64
2023/03/03 01:26:00;;;;;;;10.57;9.48;;;;;;;;;;5019672;28;20249;-64
2023/03/03 01:28:28;;;;;;;10.23;9.23;;;;;;;;;;5030511;28;20209;-64
2023/03/03 01:30:56;;;;;;;9.55;8.55;;;;;;;;;;5019767;28;20721;-64
2023/03/03 01:33:23;;;;;;;11.13;9.90;;;;;;;;;;5020042;28;20294;-64
2023/03/03 01:35:50;;;;;;;10.32;9.23;;;;;;;;;;5019623;28;20234;-64
2023/03/03 01:38:18;;;;;;;10.52;9.43;;;;;;;;;;5019271;28;20305;-64
2023/03/03 01:40:52;;;;;;;10.80;9.80;;;;;;;;;;5019501;28;20293;-64
2023/03/03 01:43:21;;;;;;;10.63;9.63;;;;;;;;;;5030278;28;20285;-64
2023/03/03 01:46:07;;;;;;;10.38;9.30;;;;;;;;;;5019410;28;20325;-64
2023/03/03 01:48:37;;;;;;;10.23;9.23;;;;;;;;;;5019366;28;20309;-64
2023/03/03 01:51:06;;;;;;;10.10;9.07;;;;;;;;;;5019564;28;20226;-64
2023/03/03 01:53:35;;;;;;;10.77;9.70;;;;;;;;;;5019176;28;20294;-64
2023/03/03 01:56:03;;;;;;;10.38;9.07;;;;;;;;;;5028065;28;20209;-64
2023/03/03 01:58:35;;;;;;;10.35;9.30;;;;;;;;;;5023690;28;20301;-64
2023/03/03 02:01:03;;;;;;;10.63;9.63;;;;;;;;;;5018353;28;20285;-64
2023/03/03 02:03:30;;;;;;;10.73;9.63;;;;;;;;;;5026147;28;20212;-64
2023/03/03 02:06:00;;;;;;;10.93;9.82;;;;;;;;;;5028154;28;20206;-64
2023/03/03 02:08:33;;;;;;;10.65;9.55;;;;;;;;;;5018951;28;20603;-64
2023/03/03 02:11:01;;;;;;;10.25;9.15;;;;;;;;;;5018752;28;20238;-64
2023/03/03 02:13:29;;;;;;;9.48;8.57;;;;;;;;;;5019020;28;20203;-64
2023/03/03 02:15:58;;;;;;;10.48;9.20;;;;;;;;;;5018967;28;20217;-64
2023/03/03 02:18:26;;;;;;;10.65;9.63;;;;;;;;;;5018247;28;20242;-64
2023/03/03 02:20:56;;;;;;;10.45;9.45;;;;;;;;;;5017895;28;20217;-64
2023/03/03 02:23:25;;;;;;;10.95;9.85;;;;;;;;;;5021689;28;20238;-64
2023/03/03 02:25:56;;;;;;;10.35;9.30;;;;;;;;;;5018659;28;20256;-64
2023/03/03 02:28:25;;;;;;;10.27;9.27;;;;;;;;;;5018869;28;20508;-64
2023/03/03 02:30:55;;;;;;;10.20;9.20;;;;;;;;;;5018510;28;20230;-63
2023/03/03 02:33:23;;;;;;;10.68;9.48;;;;;;;;;;5018535;28;20293;-64
2023/03/03 02:35:50;;;;;;;9.88;8.88;;;;;;;;;;5018526;28;20213;-64
2023/03/03 02:38:21;;;;;;;10.18;9.18;;;;;;;;;;5020896;28;20214;-64
2023/03/03 02:40:54;;;;;;;10.48;9.45;;;;;;;;;;5018370;28;20221;-64
2023/03/03 02:43:24;;;;;;;9.60;8.52;;;;;;;;;;5018905;28;20213;-64
2023/03/03 02:45:53;;;;;;;10.10;9.10;;;;;;;;;;5017782;28;20221;-64
2023/03/03 02:48:20;;;;;;;10.38;9.27;;;;;;;;;;5018071;28;20611;-64
2023/03/03 02:50:48;;;;;;;10.07;9.07;;;;;;;;;;5021960;28;20309;-64
2023/03/03 02:53:15;;;;;;;10.32;9.23;;;;;;;;;;5018641;28;20220;-63
2023/03/03 02:55:42;;;;;;;9.73;8.82;;;;;;;;;;5018535;28;20578;-63
2023/03/03 02:58:10;;;;;;;10.05;9.05;;;;;;;;;;5018514;28;20293;-63
2023/03/03 03:00:37;;;;;;;10.65;9.32;;;;;;;;;;5018185;28;20236;-63
2023/03/03 03:03:06;;;;;;;10.43;9.38;;;;;;;;;;5017565;28;20206;-63
2023/03/03 03:05:34;;;;;;;10.25;9.25;;;;;;;;;;5029131;28;20297;-65
2023/03/03 03:08:01;;;;;;;10.20;9.20;;;;;;;;;;5017746;28;20210;-64
2023/03/03 03:10:29;;;;;;;9.43;8.50;;;;;;;;;;5017841;28;20222;-64
2023/03/03 03:12:56;;;;;;;10.20;9.18;;;;;;;;;;5017292;28;20207;-64
2023/03/03 03:15:24;;;;;;;9.85;8.85;;;;;;;;;;5017490;28;20210;-64
2023/03/03 03:17:51;;;;;;;10.07;9.07;;;;;;;;;;5019545;28;20301;-64
2023/03/03 03:20:20;;;;;;;9.73;8.73;;;;;;;;;;5028001;28;20218;-64
2023/03/03 03:22:47;;;;;;;10.35;9.25;;;;;;;;;;5017181;28;20245;-64
2023/03/03 03:25:15;;;;;;;10.13;9.13;;;;;;;;;;5017594;28;20265;-64
2023/03/03 03:27:42;;;;;;;9.80;8.85;;;;;;;;;;5017631;28;20206;-64
2023/03/03 03:30:10;;;;;;;9.98;8.98;;;;;;;;;;5017722;28;20324;-64
2023/03/03 03:32:38;;;;;;;9.82;8.82;;;;;;;;;;5026225;28;20391;-64
2023/03/03 03:35:05;;;;;;;8.75;7.85;;;;;;;;;;5022163;28;20220;-64
2023/03/03 03:37:34;;;;;;;9.88;8.88;;;;;;;;;;5017112;28;20327;-64
2023/03/03 03:40:02;;;;;;;9.68;8.68;;;;;;;;;;5017360;28;20296;-64
2023/03/03 03:42:30;;;;;;;9.45;8.55;;;;;;;;;;5016927;28;20202;-64
2023/03/03 03:44:57;;;;;;;10.10;9.10;;;;;;;;;;5017873;28;20297;-64
2023/03/03 03:47:24;;;;;;;9.82;8.85;;;;;;;;;;5019416;28;20206;-64
2023/03/03 03:49:52;;;;;;;9.88;8.88;;;;;;;;;;5017185;28;20312;-64
2023/03/03 03:52:19;;;;;;;9.30;8.40;;;;;;;;;;5017305;28;20213;-64
2023/03/03 03:54:48;;;;;;;8.80;7.97;;;;;;;;;;5017386;28;20336;-64
2023/03/03 03:57:15;;;;;;;8.52;7.72;;;;;;;;;;5017244;28;20225;-64
2023/03/03 03:59:43;;;;;;;8.80;8.00;;;;;;;;;;5022693;28;20244;-64
2023/03/03 04:02:10;;;;;;;9.57;8.65;;;;;;;;;;5017792;28;20233;-64
2023/03/03 04:04:38;;;;;;;8.93;8.05;;;;;;;;;;5017081;28;20213;-64
2023/03/03 04:07:05;;;;;;;9.05;8.15;;;;;;;;;;5016885;28;20289;-64
2023/03/03 04:09:33;;;;;;;9.35;8.43;;;;;;;;;;5016633;28;20285;-64
2023/03/03 04:12:02;;;;;;;9.82;8.82;;;;;;;;;;5016468;28;20264;-64
2023/03/03 04:14:30;;;;;;;9.68;8.75;;;;;;;;;;5025873;28;20210;-64
2023/03/03 04:16:57;;;;;;;9.55;8.65;;;;;;;;;;5016341;28;20242;-64
2023/03/03 04:19:24;;;;;;;9.57;8.68;;;;;;;;;;5017054;28;20241;-64
2023/03/03 04:21:52;;;;;;;9.43;8.52;;;;;;;;;;5016613;28;20212;-64
2023/03/03 04:24:19;;;;;;;9.02;8.18;;;;;;;;;;5016403;28;20202;-64
2023/03/03 04:26:47;;;;;;;9.20;8.30;;;;;;;;;;5016765;28;20226;-65
2023/03/03 04:29:16;;;;;;;8.82;7.97;;;;;;;;;;5016170;28;20609;-64
2023/03/03 04:31:43;;;;;;;8.73;7.90;;;;;;;;;;5016100;28;20261;-64
2023/03/03 04:34:10;;;;;;;8.77;7.97;;;;;;;;;;5016704;28;20203;-65
2023/03/03 04:36:38;;;;;;;8.63;7.82;;;;;;;;;;5016492;28;20241;-64
2023/03/03 04:39:05;;;;;;;9.82;8.85;;;;;;;;;;5016598;28;20260;-64
2023/03/03 04:41:33;;;;;;;8.50;7.70;;;;;;;;;;5017033;28;20210;-64
2023/03/03 04:44:00;;;;;;;8.60;7.80;;;;;;;;;;5019194;28;20293;-64
2023/03/03 04:46:29;;;;;;;8.80;7.95;;;;;;;;;;5020424;28;20209;-64
2023/03/03 04:48:56;;;;;;;8.93;8.05;;;;;;;;;;5020328;28;20206;-64
2023/03/03 04:51:24;;;;;;;8.43;7.63;;;;;;;;;;5020356;28;20229;-64
2023/03/03 04:53:51;;;;;;;8.23;7.43;;;;;;;;;;5028458;28;20296;-65
2023/03/03 04:56:19;;;;;;;8.48;7.68;;;;;;;;;;5020190;28;20267;-65
2023/03/03 04:58:46;;;;;;;8.50;7.70;;;;;;;;;;5019862;28;20206;-64
2023/03/03 05:01:14;;;;;;;8.45;7.65;;;;;;;;;;5020007;28;20202;-64
2023/03/03 05:03:43;;;;;;;8.45;7.65;;;;;;;;;;5019952;28;20206;-64
2023/03/03 05:06:11;;;;;;;8.43;7.63;;;;;;;;;;5019889;28;20207;-64
2023/03/03 05:08:38;;;;;;;8.02;7.22;;;;;;;;;;5029708;28;20241;-64
2023/03/03 05:11:06;;;;;;;8.27;7.47;;;;;;;;;;5019696;28;20242;-65
2023/03/03 05:13:33;;;;;;;8.35;7.55;;;;;;;;;;5019482;28;20587;-64
2023/03/03 05:16:01;;;;;;;7.40;6.70;;;;;;;;;;5019252;28;20206;-64
2023/03/03 05:18:28;;;;;;;7.15;6.45;;;;;;;;;;5019078;28;20238;-64
2023/03/03 05:20:57;;;;;;;7.65;6.93;;;;;;;;;;5022036;28;20238;-64
2023/03/03 05:23:25;;;;;;;8.40;7.60;;;;;;;;;;5027031;28;20206;-64
2023/03/03 05:25:52;;;;;;;7.95;7.18;;;;;;;;;;5018570;28;20383;-65
2023/03/03 05:28:20;;;;;;;7.72;7.03;;;;;;;;;;5017612;28;20285;-65
2023/03/03 05:30:47;;;;;;;8.25;7.45;;;;;;;;;;5018880;28;20321;-64
2023/03/03 05:33:15;;;;;;;7.80;7.10;;;;;;;;;;5018126;28;20206;-64
2023/03/03 05:35:43;;;;;;;7.82;7.03;;;;;;;;;;5019474;28;20218;-64
2023/03/03 05:38:12;;;;;;;7.95;7.15;;;;;;;;;;5018051;28;20560;-64
2023/03/03 05:40:39;;;;;;;7.63;6.93;;;;;;;;;;5018489;28;20209;-65
2023/03/03 05:43:07;;;;;;;7.72;7.03;;;;;;;;;;5017837;28;20709;-64
2023/03/03 05:45:34;;;;;;;7.50;6.80;;;;;;;;;;5017359;28;20207;-64
2023/03/03 05:48:02;;;;;;;8.35;7.55;;;;;;;;;;5021635;28;20233;-65
2023/03/03 05:50:29;;;;;;;8.30;7.55;;;;;;;;;;5017114;28;20229;-64
2023/03/03 05:52:57;;;;;;;7.50;6.78;;;;;;;;;;5016858;28;20237;-64
2023/03/03 05:55:26;;;;;;;7.60;6.90;;;;;;;;;;5014812;28;20607;-64
2023/03/03 05:57:53;;;;;;;8.20;7.40;;;;;;;;;;5016644;28;20220;-65
2023/03/03 06:00:21;;;;;;;7.82;7.13;;;;;;;;;;5016356;28;20206;-64
2023/03/03 06:02:48;;;;;;;7.97;7.18;;;;;;;;;;5022242;28;20301;-64
2023/03/03 06:05:16;;;;;;;6.93;6.32;;;;;;;;;;5017128;28;20221;-65
2023/03/03 06:07:43;;;;;;;7.18;6.47;;;;;;;;;;5016279;28;20206;-65
2023/03/03 06:10:11;;;;;;;8.00;7.20;;;;;;;;;;5032348;28;20198;-64
2023/03/03 06:12:41;;;;;;;7.70;7.00;;;;;;;;;;5041105;28;20288;-64
2023/03/03 06:15:09;;;;;;;7.57;6.88;;;;;;;;;;5045688;28;20205;-65
2023/03/03 06:17:36;;;;;;;7.40;6.70;;;;;;;;;;5020489;28;20818;-64
2023/03/03 06:20:04;;;;;;;7.97;7.22;;;;;;;;;;5023154;28;20504;-64
2023/03/03 06:22:32;;;;;;;7.80;7.10;;;;;;;;;;5016155;28;20280;-64
2023/03/03 06:24:59;;;;;;;8.45;7.35;;;;;;;;;;5015182;28;20301;-64
2023/03/03 06:27:27;;;;;;;7.45;6.75;;;;;;;;;;5029110;28;20202;-65
2023/03/03 06:29:56;;;;;;;8.18;7.38;;;;;;;;;;5015182;28;20297;-64
2023/03/03 06:32:23;;;;;;;7.35;6.65;;;;;;;;;;5013624;28;20705;-64
2023/03/03 06:34:50;;;;;;;7.70;6.90;;;;;;;;;;5017506;28;20217;-64
2023/03/03 06:37:18;;;;;;;8.38;7.47;;;;;;;;;;5014357;28;20300;-64
2023/03/03 06:39:45;;;;;;;8.32;7.50;;;;;;;;;;5023757;28;20373;-64
2023/03/03 06:42:13;;;;;;;8.85;8.00;;;;;;;;;;5023720;28;20280;-64
2023/03/03 06:44:41;;;;;;;9.18;7.90;;;;;;;;;;5016027;28;20208;-64
2023/03/03 06:47:09;;;;;;;9.48;8.13;;;;;;;;;;5013785;28;20198;-65
2023/03/03 06:49:37;;;;;;;9.02;8.13;;;;;;;;;;5022588;28;20612;-64
2023/03/03 06:52:10;;;;;;;9.85;7.82;;;;;;;;;;5013443;28;20313;-64
2023/03/03 06:54:38;;;;;;;8.45;7.55;;;;;;;;;;5019157;28;20206;-65
2023/03/03 06:57:09;;;;;;;9.70;8.30;;;;;;;;;;5021612;28;20229;-64
2023/03/03 06:59:37;;;;;;;9.68;8.68;;;;;;;;;;5024250;28;20288;-64
2023/03/03 07:02:12;;;;;;;10.15;8.30;;;;;;;;;;5013569;28;20447;-64
2023/03/03 07:04:40;;;;;;;11.40;9.05;;;;;;;;;;5017069;28;20289;-64
2023/03/03 07:07:11;;;;;;;11.30;9.35;;;;;;;;;;5015638;28;20206;-64
2023/03/03 07:09:39;;;;;;;10.95;9.40;;;;;;;;;;5027125;28;20205;-64
2023/03/03 07:12:11;;;;;;;13.77;9.55;;;;;;;;;;5015921;28;20223;-64
2023/03/03 07:14:42;;;;;;;11.15;9.13;;;;;;;;;;5017315;28;20480;-65
2023/03/03 07:17:12;;;;;;;14.35;9.77;;;;;;;;;;5015073;28;20213;-64
2023/03/03 07:19:41;;;;;;;13.10;9.25;;;;;;;;;;5023853;28;20216;-65
2023/03/03 07:22:14;;;;;;;12.70;8.82;;;;;;;;;;5017338;28;20569;-64
2023/03/03 07:24:42;;;;;;;10.32;9.05;;;;;;;;;;5010709;28;20202;-65
2023/03/03 07:27:12;;;;;;;9.60;8.45;;;;;;;;;;5015131;28;20334;-65
2023/03/03 07:29:41;;;;;;;11.43;9.50;;;;;;;;;;5014421;28;20310;-64
2023/03/03 07:32:20;;;;;;;12.18;9.65;;;;;;;;;;5015501;28;20236;-65
2023/03/03 07:34:49;;;;;;;13.13;9.05;;;;;;;;;;5023567;28;20205;-66
2023/03/03 07:37:26;;;;;;;11.25;9.85;;;;;;;;;;5023438;28;20666;-65
2023/03/03 07:39:53;;;;;;;11.07;9.57;;;;;;;;;;5018052;28;20206;-65
2023/03/03 07:42:26;;;;;;;11.35;9.95;;;;;;;;;;5027746;28;20235;-65
2023/03/03 07:44:55;;;;;;;10.05;9.05;;;;;;;;;;5021800;28;20229;-65
2023/03/03 07:47:24;;;;;;;11.40;9.07;;;;;;;;;;5022401;28;20206;-65
2023/03/03 07:49:54;;;;;;;11.35;9.32;;;;;;;;;;5018773;28;20539;-65
2023/03/03 07:52:26;;;;;;;9.70;8.73;;;;;;;;;;5036370;28;20606;-66
2023/03/03 07:54:55;;;;;;;9.77;8.48;;;;;;;;;;5016513;28;20715;-66
2023/03/03 07:57:24;;;;;;;9.45;8.27;;;;;;;;;;5025332;28;20201;-65
2023/03/03 07:59:52;;;;;;;9.80;8.35;;;;;;;;;;5018907;28;20210;-65
2023/03/03 08:02:43;;;;;;;9.95;8.27;;;;;;;;;;5020972;28;20257;-65
2023/03/03 08:05:33;;;;;;;8.38;7.47;;;;;;;;;;5009053;28;20271;-65
2023/03/03 08:08:16;;;;;;;8.52;7.50;;;;;;;;;;5019354;28;20271;-65
2023/03/03 08:10:47;;;;;;;8.27;7.43;;;;;;;;;;5007677;28;20204;-64
2023/03/03 08:13:18;;;;;;;7.75;6.95;;;;;;;;;;5017811;28;20265;-64
2023/03/03 08:15:47;;;;;;;7.75;6.95;;;;;;;;;;5022160;28;20486;-64
2023/03/03 08:18:22;;;;;;;8.00;7.20;;;;;;;;;;5032283;28;20205;-64
2023/03/03 08:20:50;;;;;;;8.10;7.15;;;;;;;;;;5030001;28;20205;-65
2023/03/03 08:23:20;;;;;;;7.38;6.50;;;;;;;;;;5018376;28;20268;-65
2023/03/03 08:25:48;;;;;;;7.20;6.50;;;;;;;;;;5017701;28;20341;-65
2023/03/03 08:28:15;;;;;;;7.13;6.43;;;;;;;;;;5018579;28;20220;-65
2023/03/03 08:30:44;;;;;;;7.38;6.43;;;;;;;;;;5025698;28;20284;-65
2023/03/03 08:33:11;;;;;;;6.45;5.72;;;;;;;;;;5032160;28;20287;-65
2023/03/03 08:35:39;;;;;;;7.15;6.30;;;;;;;;;;5018560;28;20249;-65
2023/03/03 08:38:06;;;;;;;6.75;6.05;;;;;;;;;;5017642;28;20213;-65
2023/03/03 08:40:36;;;;;;;6.60;5.97;;;;;;;;;;5021922;28;20201;-65
2023/03/03 08:43:03;;;;;;;6.63;5.93;;;;;;;;;;5019183;28;20293;-65
2023/03/03 08:45:31;;;;;;;6.53;5.93;;;;;;;;;;5022461;28;20292;-64
2023/03/03 08:48:00;;;;;;;6.80;6.10;;;;;;;;;;5030011;28;20217;-64
2023/03/03 08:50:27;;;;;;;6.82;6.13;;;;;;;;;;5028047;28;20202;-64
2023/03/03 08:52:55;;;;;;;6.65;5.80;;;;;;;;;;5022504;28;20236;-64
2023/03/03 08:55:22;;;;;;;6.60;5.88;;;;;;;;;;5018581;28;20492;-64
2023/03/03 08:57:51;;;;;;;6.78;6.03;;;;;;;;;;5017187;28;20641;-64
2023/03/03 09:00:19;;;;;;;6.22;5.10;;;;;;;;;;5026635;28;20683;-64
2023/03/03 09:02:47;;;;;;;6.32;5.72;;;;;;;;;;5022859;28;20213;-65
2023/03/03 09:05:14;;;;;;;6.30;5.68;;;;;;;;;;5017768;28;20269;-65
2023/03/03 09:07:42;;;;;;;6.13;5.53;;;;;;;;;;5018040;28;20234;-64
2023/03/03 09:10:10;;;;;;;6.22;5.22;;;;;;;;;;5017510;28;20206;-64
2023/03/03 09:12:39;;;;;;;6.07;5.47;;;;;;;;;;5030791;28;20244;-64
2023/03/03 09:15:14;;;;;;;6.20;5.60;;;;;;;;;;5020287;28;20206;-64
2023/03/03 09:17:42;;;;;;;5.82;5.32;;;;;;;;;;5017622;28;20206;-64
2023/03/03 09:20:22;;;;;;;6.35;5.55;;;;;;;;;;5020057;28;20203;-64
2023/03/03 09:22:50;;;;;;;6.32;5.43;;;;;;;;;;5021603;28;20288;-64
2023/03/03 09:25:22;;;;;;;5.95;5.35;;;;;;;;;;5019073;28;20240;-64
2023/03/03 09:27:50;;;;;;;6.22;5.43;;;;;;;;;;5029667;28;20211;-65
2023/03/03 09:30:31;;;;;;;6.53;5.40;;;;;;;;;;5016794;28;20301;-65
2023/03/03 09:32:59;;;;;;;5.97;5.40;;;;;;;;;;5023516;28;20268;-64
2023/03/03 09:35:36;;;;;;;5.63;5.13;;;;;;;;;;5018735;28;20309;-65
2023/03/03 09:38:16;;;;;;;6.70;5.30;;;;;;;;;;5029829;28;20658;-65
2023/03/03 09:40:52;;;;;;;5.70;5.20;;;;;;;;;;5022984;28;20507;-64
2023/03/03 09:43:22;;;;;;;6.65;5.75;;;;;;;;;;5019725;28;20503;-65
2023/03/03 09:45:57;;;;;;;6.20;5.60;;;;;;;;;;5020654;28;20228;-64
2023/03/03 09:48:43;;;;;;;6.50;5.90;;;;;;;;;;5027216;28;20436;-64
2023/03/03 09:51:17;;;;;;;5.70;5.13;;;;;;;;;;5022158;28;20289;-65
2023/03/03 09:53:50;;;;;;;5.90;5.30;;;;;;;;;;5025738;28;20233;-64
2023/03/03 09:56:20;;;;;;;5.45;4.95;;;;;;;;;;5029526;28;20194;-64
2023/03/03 09:58:54;;;;;;;5.80;5.20;;;;;;;;;;5024908;28;20213;-64
2023/03/03 10:01:32;;;;;;;6.57;5.55;;;;;;;;;;5023194;28;20468;-64
2023/03/03 10:04:05;;;;;;;6.10;5.35;;;;;;;;;;5015947;28;20296;-64
2023/03/03 10:06:34;;;;;;;5.65;4.95;;;;;;;;;;5024445;28;20494;-65
2023/03/03 10:09:23;;;;;;;6.20;5.55;;;;;;;;;;5022779;28;20285;-65
2023/03/03 10:11:54;;;;;;;5.78;5.22;;;;;;;;;;5023677;28;20606;-64
2023/03/03 10:14:28;;;;;;;6.90;6.20;;;;;;;;;;5015629;28;20289;-64
2023/03/03 10:17:04;;;;;;;6.05;5.53;;;;;;;;;;5027356;28;20308;-64
2023/03/03 10:19:38;;;;;;;6.00;5.40;;;;;;;;;;5024363;28;20280;-65
2023/03/03 10:22:23;;;;;;;5.75;5.15;;;;;;;;;;5024726;28;20198;-65
2023/03/03 10:25:01;;;;;;;6.15;5.50;;;;;;;;;;5015402;28;20202;-64
2023/03/03 10:27:33;;;;;;;6.30;5.65;;;;;;;;;;5030518;28;20240;-65
2023/03/03 10:30:04;;;;;;;6.03;5.43;;;;;;;;;;5016036;28;20289;-65
2023/03/03 10:32:38;;;;;;;11.07;5.95;;;;;;;;;;5023682;28;20670;-64
2023/03/03 10:35:20;;;;;;;9.20;6.38;;;;;;;;;;5021098;28;20233;-65
2023/03/03 10:37:53;;;;;;;9.23;5.80;;;;;;;;;;5015815;28;20291;-64
2023/03/03 10:40:27;;;;;;;10.07;5.60;;;;;;;;;;5014902;28;20289;-64
2023/03/03 10:43:08;;;;;;;8.73;5.45;;;;;;;;;;5023198;28;20213;-65
2023/03/03 10:45:46;;;;;;;8.75;5.68;;;;;;;;;;5014697;28;20682;-65
2023/03/03 10:48:24;;;;;;;8.20;5.80;;;;;;;;;;5025862;28;20306;-65
2023/03/03 10:50:57;;;;;;;7.50;5.65;;;;;;;;;;5015737;28;20297;-65
2023/03/03 10:53:28;;;;;;;7.43;5.60;;;;;;;;;;5034029;28;20239;-65
2023/03/03 10:56:02;;;;;;;6.13;5.38;;;;;;;;;;5018557;28;20206;-65
2023/03/03 10:58:35;;;;;;;7.30;5.47;;;;;;;;;;5028602;28;20209;-65
2023/03/03 11:01:08;;;;;;;9.00;5.55;;;;;;;;;;5024072;28;20296;-64
2023/03/03 11:03:48;;;;;;;6.70;5.57;;;;;;;;;;5021533;28;20913;-65
2023/03/03 11:06:19;;;;;;;7.03;5.47;;;;;;;;;;5017169;28;20201;-64
2023/03/03 11:08:50;;;;;;;7.13;5.40;;;;;;;;;;5025964;28;20542;-65
2023/03/03 11:11:20;;;;;;;6.65;5.28;;;;;;;;;;5017615;28;20497;-65
2023/03/03 11:13:51;;;;;;;6.88;5.47;;;;;;;;;;5023460;28;20781;-65
2023/03/03 11:16:36;;;;;;;6.47;5.78;;;;;;;;;;5016960;28;20300;-65
2023/03/03 11:19:12;;;;;;;6.80;5.28;;;;;;;;;;5013637;28;20629;-65
2023/03/03 11:21:42;;;;;;;6.80;5.60;;;;;;;;;;5017908;28;20491;-64
2023/03/03 11:24:20;;;;;;;6.57;5.43;;;;;;;;;;5015358;28;20597;-64
2023/03/03 11:26:56;;;;;;;7.63;5.43;;;;;;;;;;5020760;28;20620;-65
2023/03/03 11:29:42;;;;;;;5.80;5.03;;;;;;;;;;5021838;28;20217;-65
2023/03/03 11:32:17;;;;;;;7.78;4.90;;;;;;;;;;5021529;28;20449;-64
2023/03/03 11:34:51;;;;;;;7.10;5.55;;;;;;;;;;5013274;28;20666;-65
2023/03/03 11:37:22;;;;;;;5.95;5.35;;;;;;;;;;5023097;28;20331;-65
2023/03/03 11:39:51;;;;;;;7.22;5.60;;;;;;;;;;5017740;28;20213;-65
2023/03/03 11:42:23;;;;;;;6.03;5.43;;;;;;;;;;5027278;28;20209;-65
2023/03/03 11:44:53;;;;;;;6.05;5.40;;;;;;;;;;5013891;28;20293;-65
2023/03/03 11:47:23;;;;;;;6.45;5.30;;;;;;;;;;5022942;28;20289;-64
2023/03/03 11:49:54;;;;;;;7.20;5.20;;;;;;;;;;5019117;28;20248;-65
2023/03/03 11:52:25;;;;;;;6.63;5.50;;;;;;;;;;5019193;28;20232;-65
2023/03/03 11:54:55;;;;;;;6.70;5.13;;;;;;;;;;5017936;28;20259;-65
2023/03/03 11:57:24;;;;;;;5.88;5.28;;;;;;;;;;5032157;28;20288;-65
2023/03/03 11:59:57;;;;;;;6.72;5.47;;;;;;;;;;5032168;28;20570;-64
2023/03/03 12:02:29;;;;;;;5.70;5.10;;;;;;;;;;5020359;28;20288;-64
2023/03/03 12:04:59;;;;;;;6.18;5.07;;;;;;;;;;5024726;28;20205;-65
2023/03/03 12:07:32;;;;;;;6.40;5.53;;;;;;;;;;5032632;28;20312;-65
2023/03/03 12:10:03;;;;;;;7.03;5.43;;;;;;;;;;5032829;28;20292;-64
2023/03/03 12:12:34;;;;;;;6.00;5.43;;;;;;;;;;5026875;28;20242;-65
2023/03/03 12:15:07;;;;;;;6.35;5.28;;;;;;;;;;5022035;28;20408;-65
2023/03/03 12:17:44;;;;;;;6.82;5.40;;;;;;;;;;5019059;28;20214;-65
2023/03/03 12:20:16;;;;;;;6.85;5.07;;;;;;;;;;5011816;28;20201;-65
2023/03/03 12:22:50;;;;;;;8.30;5.10;;;;;;;;;;5013279;28;20199;-65
2023/03/03 12:25:23;;;;;;;6.55;5.43;;;;;;;;;;5031229;28;20328;-64
2023/03/03 12:27:55;;;;;;;5.85;5.22;;;;;;;;;;5032668;28;20485;-64
2023/03/03 12:30:27;;;;;;;5.97;5.38;;;;;;;;;;5030987;28;20205;-65
2023/03/03 12:33:05;;;;;;;6.35;5.10;;;;;;;;;;5031085;28;20225;-65
2023/03/03 12:35:37;;;;;;;5.28;4.65;;;;;;;;;;5031862;28;20201;-65
2023/03/03 12:38:09;;;;;;;5.65;5.05;;;;;;;;;;5030717;28;20304;-64
2023/03/03 12:40:41;;;;;;;6.57;5.60;;;;;;;;;;5031048;28;20286;-64
2023/03/03 12:43:18;;;;;;;5.85;5.25;;;;;;;;;;5031217;28;20325;-64
2023/03/03 12:45:52;;;;;;;5.80;5.20;;;;;;;;;;5030065;28;20550;-65
2023/03/03 12:48:22;;;;;;;6.15;5.07;;;;;;;;;;5030131;28;20206;-64
2023/03/03 12:50:57;;;;;;;6.25;5.65;;;;;;;;;;5030935;28;20304;-65
2023/03/03 12:53:32;;;;;;;5.57;5.07;;;;;;;;;;5030419;28;20244;-65
2023/03/03 12:56:02;;;;;;;5.60;4.90;;;;;;;;;;5032539;28;20313;-65
2023/03/03 12:58:36;;;;;;;5.90;4.97;;;;;;;;;;5032389;28;20293;-65
2023/03/03 13:01:10;;;;;;;5.85;5.00;;;;;;;;;;5032820;28;20267;-64
2023/03/03 13:03:41;;;;;;;5.88;4.95;;;;;;;;;;5032714;28;20309;-64
2023/03/03 13:06:15;;;;;;;5.93;5.03;;;;;;;;;;5036528;28;20537;-65
2023/03/03 13:08:54;;;;;;;5.85;5.25;;;;;;;;;;5035477;28;20304;-64
2023/03/03 13:11:29;;;;;;;5.47;4.88;;;;;;;;;;5034710;28;20566;-65
2023/03/03 13:14:00;;;;;;;6.10;5.13;;;;;;;;;;5034750;28;20324;-64
2023/03/03 13:16:31;;;;;;;5.63;5.00;;;;;;;;;;5035927;28;20546;-64
2023/03/03 13:19:01;;;;;;;6.18;5.20;;;;;;;;;;5034571;28;20205;-64
2023/03/03 13:21:32;;;;;;;5.45;4.93;;;;;;;;;;5035240;28;20206;-64
2023/03/03 13:24:05;;;;;;;5.80;4.97;;;;;;;;;;5035317;28;20201;-64
2023/03/03 13:26:37;;;;;;;6.28;5.28;;;;;;;;;;5036053;28;20336;-64
2023/03/03 13:29:06;;;;;;;6.65;5.50;;;;;;;;;;5035771;28;20213;-64
2023/03/03 13:31:35;;;;;;;6.18;5.57;;;;;;;;;;5034639;28;20289;-64
2023/03/03 13:34:03;;;;;;;6.18;5.20;;;;;;;;;;5036020;28;20311;-64
2023/03/03 13:36:35;;;;;;;6.88;5.40;;;;;;;;;;5035703;28;20818;-65
2023/03/03 13:39:05;;;;;;;6.68;5.03;;;;;;;;;;5034165;28;20201;-65
2023/03/03 13:41:40;;;;;;;6.35;5.30;;;;;;;;;;5035871;28;20296;-65
2023/03/03 13:44:12;;;;;;;6.07;5.47;;;;;;;;;;5034979;28;20313;-64
2023/03/03 13:46:42;;;;;;;6.03;5.43;;;;;;;;;;5035394;28;20697;-65
2023/03/03 13:49:27;;;;;;;5.88;5.10;;;;;;;;;;5035044;28;20603;-65
2023/03/03 13:52:00;;;;;;;7.35;5.20;;;;;;;;;;5028709;28;20307;-65
2023/03/03 13:54:37;;;;;;;5.97;5.38;;;;;;;;;;5034346;28;20321;-65
2023/03/03 13:57:13;;;;;;;6.50;5.72;;;;;;;;;;5035386;28;20300;-64
2023/03/03 13:59:46;;;;;;;5.65;5.03;;;;;;;;;;5035310;28;20308;-65
2023/03/03 14:02:31;;;;;;;5.60;5.10;;;;;;;;;;5035295;28;20292;-64
2023/03/03 14:05:02;;;;;;;7.10;5.82;;;;;;;;;;5034698;28;20240;-64
2023/03/03 14:07:33;;;;;;;5.97;5.30;;;;;;;;;;5035618;28;20213;-64
2023/03/03 14:10:03;;;;;;;5.70;5.03;;;;;;;;;;5034155;28;20218;-64
2023/03/03 14:12:37;;;;;;;6.15;5.55;;;;;;;;;;5033688;28;20308;-65
2023/03/03 14:15:10;;;;;;;7.13;5.80;;;;;;;;;;5033348;28;20229;-65
2023/03/03 14:17:41;;;;;;;6.40;5.80;;;;;;;;;;5034688;28;20292;-64
2023/03/03 14:20:16;;;;;;;6.03;5.43;;;;;;;;;;5034858;28;20421;-64
2023/03/03 14:22:50;;;;;;;5.72;5.15;;;;;;;;;;5034286;28;20279;-64
2023/03/03 14:25:18;;;;;;;5.82;5.22;;;;;;;;;;5034063;28;20232;-65
2023/03/03 14:27:59;;;;;;;6.30;5.70;;;;;;;;;;5033619;28;20212;-65
2023/03/03 14:30:31;;;;;;;6.55;5.90;;;;;;;;;;5035074;28;20470;-65
2023/03/03 14:33:03;;;;;;;5.88;5.28;;;;;;;;;;5035364;28;20300;-65
2023/03/03 14:35:31;;;;;;;6.07;5.47;;;;;;;;;;5034857;28;20304;-65
2023/03/03 14:38:05;;;;;;;6.47;5.80;;;;;;;;;;5034915;28;20304;-65
2023/03/03 14:40:33;;;;;;;6.40;5.50;;;;;;;;;;5033342;28;20300;-64
2023/03/03 14:43:02;;;;;;;6.53;5.82;;;;;;;;;;5034666;28;20622;-64
2023/03/03 14:45:34;;;;;;;5.85;5.13;;;;;;;;;;5033495;28;20205;-64
2023/03/03 14:48:07;;;;;;;7.20;6.00;;;;;;;;;;5033489;28;20386;-66
2023/03/03 14:50:36;;;;;;;6.00;5.40;;;;;;;;;;5034600;28;20296;-65
2023/03/03 14:53:08;;;;;;;7.10;5.97;;;;;;;;;;5034565;28;20293;-64
2023/03/03 14:55:38;;;;;;;6.70;6.03;;;;;;;;;;5035045;28;20252;-65
2023/03/03 14:58:06;;;;;;;6.82;5.97;;;;;;;;;;5034082;28;20211;-64
2023/03/03 15:00:34;;;;;;;6.18;5.28;;;;;;;;;;5033394;28;20562;-64